sensor_id;sensor_type;location;lat;lon;timestamp;temperature;humidity
52669;DHT22;59898;52.786;6.892;2022-12-07T00:01:58;4.60;99.90
52669;DHT22;59898;52.786;6.892;2022-12-07T00:05:19;4.90;99.90
52669;DHT22;59898;52.786;6.892;2022-12-07T00:08:40;4.70;99.90
52669;DHT22;59898;52.786;6.892;2022-12-07T00:12:01;5.10;99.90
52669;DHT22;59898;52.786;6.892;2022-12-07T00:15:21;4.60;99.90
52669;DHT22;59898;52.786;6.892;2022-12-07T00:18:43;4.70;99.90
52669;DHT22;59898;52.786;6.892;2022-12-07T00:22:04;4.50;99.90
52669;DHT22;59898;52.786;6.892;2022-12-07T00:25:25;4.50;99.90
52669;DHT22;59898;52.786;6.892;2022-12-07T00:28:56;4.50;99.90
52669;DHT22;59898;52.786;6.892;2022-12-07T00:32:17;4.60;99.90
52669;DHT22;59898;52.786;6.892;2022-12-07T00:35:38;4.30;99.90
52669;DHT22;59898;52.786;6.892;2022-12-07T00:38:59;4.50;99.90
52669;DHT22;59898;52.786;6.892;2022-12-07T00:42:20;4.20;99.90
52669;DHT22;59898;52.786;6.892;2022-12-07T00:45:41;4.20;99.90
52669;DHT22;59898;52.786;6.892;2022-12-07T00:49:01;4.20;99.90
52669;DHT22;59898;52.786;6.892;2022-12-07T00:52:22;5.20;99.90
52669;DHT22;59898;52.786;6.892;2022-12-07T00:55:44;4.10;99.90
52669;DHT22;59898;52.786;6.892;2022-12-07T00:59:05;4.10;99.90
52669;DHT22;59898;52.786;6.892;2022-12-07T01:02:25;4.10;99.90
52669;DHT22;59898;52.786;6.892;2022-12-07T01:05:54;4.10;99.90
52669;DHT22;59898;52.786;6.892;2022-12-07T01:09:15;4.30;99.90
52669;DHT22;59898;52.786;6.892;2022-12-07T01:12:36;4.00;99.90
52669;DHT22;59898;52.786;6.892;2022-12-07T01:16:02;4.00;99.90
52669;DHT22;59898;52.786;6.892;2022-12-07T01:19:24;4.00;99.90
52669;DHT22;59898;52.786;6.892;2022-12-07T01:22:44;4.00;99.90
52669;DHT22;59898;52.786;6.892;2022-12-07T01:26:09;3.90;99.90
52669;DHT22;59898;52.786;6.892;2022-12-07T01:29:30;4.00;99.90
52669;DHT22;59898;52.786;6.892;2022-12-07T01:32:51;3.90;99.90
52669;DHT22;59898;52.786;6.892;2022-12-07T01:36:16;3.90;99.90
52669;DHT22;59898;52.786;6.892;2022-12-07T01:39:37;4.30;99.90
52669;DHT22;59898;52.786;6.892;2022-12-07T01:42:57;3.90;99.90
52669;DHT22;59898;52.786;6.892;2022-12-07T01:46:18;4.00;99.90
52669;DHT22;59898;52.786;6.892;2022-12-07T01:49:45;3.90;99.90
52669;DHT22;59898;52.786;6.892;2022-12-07T01:53:09;4.00;99.90
52669;DHT22;59898;52.786;6.892;2022-12-07T01:56:31;4.00;99.90
52669;DHT22;59898;52.786;6.892;2022-12-07T01:59:53;4.00;99.90
52669;DHT22;59898;52.786;6.892;2022-12-07T02:03:19;3.90;99.90
52669;DHT22;59898;52.786;6.892;2022-12-07T02:06:41;3.90;99.90
52669;DHT22;59898;52.786;6.892;2022-12-07T02:13:35;3.90;99.90
52669;DHT22;59898;52.786;6.892;2022-12-07T02:21:07;3.80;99.90
52669;DHT22;59898;52.786;6.892;2022-12-07T02:32:16;3.80;99.90
52669;DHT22;59898;52.786;6.892;2022-12-07T02:36:03;3.90;99.90
52669;DHT22;59898;52.786;6.892;2022-12-07T02:39:34;3.90;99.90
52669;DHT22;59898;52.786;6.892;2022-12-07T02:43:24;4.00;99.90
52669;DHT22;59898;52.786;6.892;2022-12-07T02:46:53;4.10;99.90
52669;DHT22;59898;52.786;6.892;2022-12-07T02:50:18;4.10;99.90
52669;DHT22;59898;52.786;6.892;2022-12-07T02:53:42;4.20;99.90
52669;DHT22;59898;52.786;6.892;2022-12-07T03:00:51;4.20;99.90
52669;DHT22;59898;52.786;6.892;2022-12-07T03:11:14;4.20;99.90
52669;DHT22;59898;52.786;6.892;2022-12-07T03:14:44;4.10;99.90
52669;DHT22;59898;52.786;6.892;2022-12-07T03:18:07;4.10;99.90
52669;DHT22;59898;52.786;6.892;2022-12-07T03:21:37;4.10;99.90
52669;DHT22;59898;52.786;6.892;2022-12-07T03:25:02;4.10;99.90
52669;DHT22;59898;52.786;6.892;2022-12-07T03:28:29;4.00;99.90
52669;DHT22;59898;52.786;6.892;2022-12-07T03:32:02;4.00;99.90
52669;DHT22;59898;52.786;6.892;2022-12-07T03:39:24;3.80;99.90
52669;DHT22;59898;52.786;6.892;2022-12-07T03:42:47;3.70;99.90
52669;DHT22;59898;52.786;6.892;2022-12-07T03:53:40;3.60;99.90
52669;DHT22;59898;52.786;6.892;2022-12-07T03:57:02;3.70;99.90
52669;DHT22;59898;52.786;6.892;2022-12-07T04:00:25;3.70;99.90
52669;DHT22;59898;52.786;6.892;2022-12-07T04:03:45;3.70;99.90
52669;DHT22;59898;52.786;6.892;2022-12-07T04:07:06;3.50;99.90
52669;DHT22;59898;52.786;6.892;2022-12-07T04:10:27;3.70;99.90
52669;DHT22;59898;52.786;6.892;2022-12-07T04:13:47;3.70;99.90
52669;DHT22;59898;52.786;6.892;2022-12-07T04:17:26;3.70;99.90
52669;DHT22;59898;52.786;6.892;2022-12-07T04:20:47;3.60;99.90
52669;DHT22;59898;52.786;6.892;2022-12-07T04:24:08;3.60;99.90
52669;DHT22;59898;52.786;6.892;2022-12-07T04:27:29;3.60;99.90
52669;DHT22;59898;52.786;6.892;2022-12-07T04:30:50;3.60;99.90
52669;DHT22;59898;52.786;6.892;2022-12-07T04:34:11;3.60;99.90
52669;DHT22;59898;52.786;6.892;2022-12-07T04:37:33;3.60;99.90
52669;DHT22;59898;52.786;6.892;2022-12-07T04:40:53;3.60;99.90
52669;DHT22;59898;52.786;6.892;2022-12-07T04:44:15;3.70;99.90
52669;DHT22;59898;52.786;6.892;2022-12-07T04:47:36;3.80;99.90
52669;DHT22;59898;52.786;6.892;2022-12-07T04:50:57;3.50;99.90
52669;DHT22;59898;52.786;6.892;2022-12-07T04:54:18;3.70;99.90
52669;DHT22;59898;52.786;6.892;2022-12-07T04:57:39;3.50;99.90
52669;DHT22;59898;52.786;6.892;2022-12-07T05:01:00;3.50;99.90
52669;DHT22;59898;52.786;6.892;2022-12-07T05:04:20;3.40;99.90
52669;DHT22;59898;52.786;6.892;2022-12-07T05:07:41;3.60;99.90
52669;DHT22;59898;52.786;6.892;2022-12-07T05:11:02;3.40;99.90
52669;DHT22;59898;52.786;6.892;2022-12-07T05:14:23;3.40;99.90
52669;DHT22;59898;52.786;6.892;2022-12-07T05:17:44;3.30;99.90
52669;DHT22;59898;52.786;6.892;2022-12-07T05:21:05;3.80;99.90
52669;DHT22;59898;52.786;6.892;2022-12-07T05:24:25;3.30;99.90
52669;DHT22;59898;52.786;6.892;2022-12-07T05:27:46;3.30;99.90
52669;DHT22;59898;52.786;6.892;2022-12-07T05:31:07;3.30;99.90
52669;DHT22;59898;52.786;6.892;2022-12-07T05:34:28;3.20;99.90
52669;DHT22;59898;52.786;6.892;2022-12-07T05:37:49;3.30;99.90
52669;DHT22;59898;52.786;6.892;2022-12-07T05:41:13;3.10;99.90
52669;DHT22;59898;52.786;6.892;2022-12-07T05:44:54;3.10;99.90
52669;DHT22;59898;52.786;6.892;2022-12-07T05:48:14;3.20;99.90
52669;DHT22;59898;52.786;6.892;2022-12-07T05:51:35;3.20;99.90
52669;DHT22;59898;52.786;6.892;2022-12-07T05:54:56;3.80;99.90
52669;DHT22;59898;52.786;6.892;2022-12-07T05:58:17;3.30;99.90
52669;DHT22;59898;52.786;6.892;2022-12-07T06:02:01;3.30;99.90
52669;DHT22;59898;52.786;6.892;2022-12-07T06:05:22;3.40;99.90
52669;DHT22;59898;52.786;6.892;2022-12-07T06:08:43;3.50;99.90
52669;DHT22;59898;52.786;6.892;2022-12-07T06:12:04;3.40;99.90
52669;DHT22;59898;52.786;6.892;2022-12-07T06:15:44;3.50;99.90
52669;DHT22;59898;52.786;6.892;2022-12-07T06:19:05;3.50;99.90
52669;DHT22;59898;52.786;6.892;2022-12-07T06:22:25;3.50;99.90
52669;DHT22;59898;52.786;6.892;2022-12-07T06:25:46;3.50;99.90
52669;DHT22;59898;52.786;6.892;2022-12-07T06:29:07;3.50;99.90
52669;DHT22;59898;52.786;6.892;2022-12-07T06:32:28;3.40;99.90
52669;DHT22;59898;52.786;6.892;2022-12-07T06:35:48;3.40;99.90
52669;DHT22;59898;52.786;6.892;2022-12-07T06:39:10;3.30;99.90
52669;DHT22;59898;52.786;6.892;2022-12-07T06:42:30;3.30;99.90
52669;DHT22;59898;52.786;6.892;2022-12-07T06:45:51;3.30;99.90
52669;DHT22;59898;52.786;6.892;2022-12-07T06:49:12;3.10;99.90
52669;DHT22;59898;52.786;6.892;2022-12-07T06:52:33;3.50;99.90
52669;DHT22;59898;52.786;6.892;2022-12-07T06:55:54;3.00;99.90
52669;DHT22;59898;52.786;6.892;2022-12-07T06:59:14;3.00;99.90
52669;DHT22;59898;52.786;6.892;2022-12-07T07:02:35;2.90;99.90
52669;DHT22;59898;52.786;6.892;2022-12-07T07:05:56;3.50;99.90
52669;DHT22;59898;52.786;6.892;2022-12-07T07:09:16;3.00;99.90
52669;DHT22;59898;52.786;6.892;2022-12-07T07:12:37;2.90;99.90
52669;DHT22;59898;52.786;6.892;2022-12-07T07:15:58;2.90;99.90
52669;DHT22;59898;52.786;6.892;2022-12-07T07:19:19;2.80;99.90
52669;DHT22;59898;52.786;6.892;2022-12-07T07:22:39;2.90;99.90
52669;DHT22;59898;52.786;6.892;2022-12-07T07:26:00;2.80;99.90
52669;DHT22;59898;52.786;6.892;2022-12-07T07:29:21;2.80;99.90
52669;DHT22;59898;52.786;6.892;2022-12-07T07:32:42;2.70;99.90
52669;DHT22;59898;52.786;6.892;2022-12-07T07:36:02;2.90;99.90
52669;DHT22;59898;52.786;6.892;2022-12-07T07:39:23;2.90;99.90
52669;DHT22;59898;52.786;6.892;2022-12-07T07:42:46;3.00;99.90
52669;DHT22;59898;52.786;6.892;2022-12-07T07:46:07;3.00;99.90
52669;DHT22;59898;52.786;6.892;2022-12-07T07:49:27;3.00;99.90
52669;DHT22;59898;52.786;6.892;2022-12-07T07:52:48;3.00;99.90
52669;DHT22;59898;52.786;6.892;2022-12-07T07:56:09;3.10;99.90
52669;DHT22;59898;52.786;6.892;2022-12-07T07:59:29;3.10;99.90
52669;DHT22;59898;52.786;6.892;2022-12-07T08:02:50;3.20;99.90
52669;DHT22;59898;52.786;6.892;2022-12-07T08:06:11;3.20;99.90
52669;DHT22;59898;52.786;6.892;2022-12-07T08:09:32;3.60;99.90
52669;DHT22;59898;52.786;6.892;2022-12-07T08:12:52;3.20;99.90
52669;DHT22;59898;52.786;6.892;2022-12-07T08:16:31;3.20;99.90
52669;DHT22;59898;52.786;6.892;2022-12-07T08:19:52;3.80;99.90
52669;DHT22;59898;52.786;6.892;2022-12-07T08:23:12;3.20;99.90
52669;DHT22;59898;52.786;6.892;2022-12-07T08:26:33;3.20;99.90
52669;DHT22;59898;52.786;6.892;2022-12-07T08:29:54;3.20;99.90
52669;DHT22;59898;52.786;6.892;2022-12-07T08:33:15;3.30;99.90
52669;DHT22;59898;52.786;6.892;2022-12-07T08:36:36;3.30;99.90
52669;DHT22;59898;52.786;6.892;2022-12-07T08:39:57;4.60;99.90
52669;DHT22;59898;52.786;6.892;2022-12-07T08:43:18;3.40;99.90
52669;DHT22;59898;52.786;6.892;2022-12-07T08:46:47;3.50;99.90
52669;DHT22;59898;52.786;6.892;2022-12-07T08:50:11;3.70;99.90
52669;DHT22;59898;52.786;6.892;2022-12-07T08:53:33;4.10;99.90
52669;DHT22;59898;52.786;6.892;2022-12-07T08:56:55;4.80;99.90
52669;DHT22;59898;52.786;6.892;2022-12-07T09:00:16;4.30;99.90
52669;DHT22;59898;52.786;6.892;2022-12-07T09:03:37;4.20;99.90
52669;DHT22;59898;52.786;6.892;2022-12-07T09:06:59;4.50;99.90
52669;DHT22;59898;52.786;6.892;2022-12-07T09:10:19;5.70;99.90
52669;DHT22;59898;52.786;6.892;2022-12-07T09:13:40;7.20;99.90
52669;DHT22;59898;52.786;6.892;2022-12-07T09:17:12;8.50;99.90
52669;DHT22;59898;52.786;6.892;2022-12-07T09:20:32;10.00;99.90
52669;DHT22;59898;52.786;6.892;2022-12-07T09:23:54;10.60;99.90
52669;DHT22;59898;52.786;6.892;2022-12-07T09:27:14;9.90;99.90
52669;DHT22;59898;52.786;6.892;2022-12-07T09:30:37;9.00;99.90
52669;DHT22;59898;52.786;6.892;2022-12-07T09:33:59;8.10;99.90
52669;DHT22;59898;52.786;6.892;2022-12-07T09:37:20;7.30;99.90
52669;DHT22;59898;52.786;6.892;2022-12-07T09:40:42;6.70;99.90
52669;DHT22;59898;52.786;6.892;2022-12-07T09:44:12;6.40;99.90
52669;DHT22;59898;52.786;6.892;2022-12-07T09:47:33;7.40;99.90
52669;DHT22;59898;52.786;6.892;2022-12-07T09:50:59;9.00;99.90
52669;DHT22;59898;52.786;6.892;2022-12-07T09:54:20;10.10;99.90
52669;DHT22;59898;52.786;6.892;2022-12-07T09:57:41;10.60;99.90
52669;DHT22;59898;52.786;6.892;2022-12-07T10:01:15;11.50;99.90
52669;DHT22;59898;52.786;6.892;2022-12-07T10:04:36;12.20;99.90
52669;DHT22;59898;52.786;6.892;2022-12-07T10:07:58;13.20;99.90
52669;DHT22;59898;52.786;6.892;2022-12-07T10:11:18;12.90;99.90
52669;DHT22;59898;52.786;6.892;2022-12-07T10:14:52;11.90;99.90
52669;DHT22;59898;52.786;6.892;2022-12-07T10:18:19;10.70;99.90
52669;DHT22;59898;52.786;6.892;2022-12-07T10:22:03;9.50;99.90
52669;DHT22;59898;52.786;6.892;2022-12-07T10:25:33;8.50;99.90
52669;DHT22;59898;52.786;6.892;2022-12-07T10:28:56;7.90;99.90
52669;DHT22;59898;52.786;6.892;2022-12-07T10:35:43;6.90;99.90
52669;DHT22;59898;52.786;6.892;2022-12-07T10:39:14;6.60;99.90
52669;DHT22;59898;52.786;6.892;2022-12-07T10:42:35;6.40;99.90
52669;DHT22;59898;52.786;6.892;2022-12-07T11:14:33;5.50;99.90
52669;DHT22;59898;52.786;6.892;2022-12-07T11:18:12;5.50;99.90
52669;DHT22;59898;52.786;6.892;2022-12-07T11:22:00;5.50;99.90
52669;DHT22;59898;52.786;6.892;2022-12-07T11:25:28;5.60;99.90
52669;DHT22;59898;52.786;6.892;2022-12-07T11:33:08;5.70;99.90
52669;DHT22;59898;52.786;6.892;2022-12-07T11:36:51;5.70;99.90
52669;DHT22;59898;52.786;6.892;2022-12-07T11:40:22;5.60;99.90
52669;DHT22;59898;52.786;6.892;2022-12-07T11:51:22;5.80;99.90
52669;DHT22;59898;52.786;6.892;2022-12-07T11:54:46;5.80;99.90
52669;DHT22;59898;52.786;6.892;2022-12-07T12:01:57;5.80;99.90
52669;DHT22;59898;52.786;6.892;2022-12-07T12:05:24;5.80;99.90
52669;DHT22;59898;52.786;6.892;2022-12-07T12:16:54;5.90;99.90
52669;DHT22;59898;52.786;6.892;2022-12-07T12:23:55;6.10;99.90
52669;DHT22;59898;52.786;6.892;2022-12-07T12:27:24;6.30;99.90
52669;DHT22;59898;52.786;6.892;2022-12-07T12:31:14;6.40;99.90
52669;DHT22;59898;52.786;6.892;2022-12-07T12:34:58;6.50;99.90
52669;DHT22;59898;52.786;6.892;2022-12-07T12:45:39;6.40;99.90
52669;DHT22;59898;52.786;6.892;2022-12-07T13:03:30;6.80;99.90
52669;DHT22;59898;52.786;6.892;2022-12-07T13:06:52;6.70;99.90
52669;DHT22;59898;52.786;6.892;2022-12-07T13:18:35;6.50;99.90
52669;DHT22;59898;52.786;6.892;2022-12-07T13:21:56;6.60;99.90
52669;DHT22;59898;52.786;6.892;2022-12-07T13:25:30;6.40;99.90
52669;DHT22;59898;52.786;6.892;2022-12-07T13:32:28;6.30;99.90
52669;DHT22;59898;52.786;6.892;2022-12-07T13:35:54;6.30;99.90
52669;DHT22;59898;52.786;6.892;2022-12-07T13:39:19;6.40;99.90
52669;DHT22;59898;52.786;6.892;2022-12-07T13:42:40;6.40;99.90
52669;DHT22;59898;52.786;6.892;2022-12-07T13:46:11;6.30;99.90
52669;DHT22;59898;52.786;6.892;2022-12-07T13:49:54;6.30;99.90
52669;DHT22;59898;52.786;6.892;2022-12-07T13:53:15;6.30;99.90
52669;DHT22;59898;52.786;6.892;2022-12-07T13:56:36;6.30;99.90
52669;DHT22;59898;52.786;6.892;2022-12-07T13:59:58;6.10;99.90
52669;DHT22;59898;52.786;6.892;2022-12-07T14:03:29;6.00;99.90
52669;DHT22;59898;52.786;6.892;2022-12-07T14:06:51;5.90;99.90
52669;DHT22;59898;52.786;6.892;2022-12-07T14:17:19;5.80;99.90
52669;DHT22;59898;52.786;6.892;2022-12-07T14:20:41;5.80;99.90
52669;DHT22;59898;52.786;6.892;2022-12-07T14:27:33;5.70;99.90
52669;DHT22;59898;52.786;6.892;2022-12-07T14:30:57;5.80;99.90
52669;DHT22;59898;52.786;6.892;2022-12-07T14:34:20;5.60;99.90
52669;DHT22;59898;52.786;6.892;2022-12-07T14:37:41;5.60;99.90
52669;DHT22;59898;52.786;6.892;2022-12-07T14:41:04;5.50;99.90
52669;DHT22;59898;52.786;6.892;2022-12-07T14:44:43;5.50;99.90
52669;DHT22;59898;52.786;6.892;2022-12-07T14:48:04;5.50;99.90
52669;DHT22;59898;52.786;6.892;2022-12-07T14:51:25;5.50;99.90
52669;DHT22;59898;52.786;6.892;2022-12-07T14:54:46;5.40;99.90
52669;DHT22;59898;52.786;6.892;2022-12-07T14:58:15;5.40;99.90
52669;DHT22;59898;52.786;6.892;2022-12-07T15:01:37;5.30;99.90
52669;DHT22;59898;52.786;6.892;2022-12-07T15:04:57;5.30;99.90
52669;DHT22;59898;52.786;6.892;2022-12-07T15:08:18;5.30;99.90
52669;DHT22;59898;52.786;6.892;2022-12-07T15:11:39;5.50;99.90
52669;DHT22;59898;52.786;6.892;2022-12-07T15:15:00;5.20;99.90
52669;DHT22;59898;52.786;6.892;2022-12-07T15:18:23;5.20;99.90
52669;DHT22;59898;52.786;6.892;2022-12-07T15:21:44;5.10;99.90
52669;DHT22;59898;52.786;6.892;2022-12-07T15:25:05;5.10;99.90
52669;DHT22;59898;52.786;6.892;2022-12-07T15:28:26;5.00;99.90
52669;DHT22;59898;52.786;6.892;2022-12-07T15:31:49;5.00;99.90
52669;DHT22;59898;52.786;6.892;2022-12-07T15:35:09;5.00;99.90
52669;DHT22;59898;52.786;6.892;2022-12-07T15:38:30;5.00;99.90
52669;DHT22;59898;52.786;6.892;2022-12-07T15:41:51;5.00;99.90
52669;DHT22;59898;52.786;6.892;2022-12-07T15:45:11;5.00;99.90
52669;DHT22;59898;52.786;6.892;2022-12-07T15:48:33;4.90;99.90
52669;DHT22;59898;52.786;6.892;2022-12-07T15:51:54;5.20;99.90
52669;DHT22;59898;52.786;6.892;2022-12-07T15:55:15;4.90;99.90
52669;DHT22;59898;52.786;6.892;2022-12-07T15:58:35;5.10;99.90
52669;DHT22;59898;52.786;6.892;2022-12-07T16:01:56;4.90;99.90
52669;DHT22;59898;52.786;6.892;2022-12-07T16:05:17;4.80;99.90
52669;DHT22;59898;52.786;6.892;2022-12-07T16:08:43;4.90;99.90
52669;DHT22;59898;52.786;6.892;2022-12-07T16:12:04;4.80;99.90
52669;DHT22;59898;52.786;6.892;2022-12-07T16:15:25;4.80;99.90
52669;DHT22;59898;52.786;6.892;2022-12-07T16:18:47;4.80;99.90
52669;DHT22;59898;52.786;6.892;2022-12-07T16:22:08;4.80;99.90
52669;DHT22;59898;52.786;6.892;2022-12-07T16:25:29;4.70;99.90
52669;DHT22;59898;52.786;6.892;2022-12-07T16:28:50;4.60;99.90
52669;DHT22;59898;52.786;6.892;2022-12-07T16:32:11;4.60;99.90
52669;DHT22;59898;52.786;6.892;2022-12-07T16:35:32;4.50;99.90
52669;DHT22;59898;52.786;6.892;2022-12-07T16:38:53;4.50;99.90
52669;DHT22;59898;52.786;6.892;2022-12-07T16:42:13;5.70;99.90
52669;DHT22;59898;52.786;6.892;2022-12-07T16:45:36;4.40;99.90
52669;DHT22;59898;52.786;6.892;2022-12-07T16:48:57;4.30;99.90
52669;DHT22;59898;52.786;6.892;2022-12-07T16:52:19;4.30;99.90
52669;DHT22;59898;52.786;6.892;2022-12-07T16:55:41;4.60;99.90
52669;DHT22;59898;52.786;6.892;2022-12-07T16:59:02;4.20;99.90
52669;DHT22;59898;52.786;6.892;2022-12-07T17:02:23;4.20;99.90
52669;DHT22;59898;52.786;6.892;2022-12-07T17:05:45;4.20;99.90
52669;DHT22;59898;52.786;6.892;2022-12-07T17:09:06;4.20;99.90
52669;DHT22;59898;52.786;6.892;2022-12-07T17:12:30;4.20;99.90
52669;DHT22;59898;52.786;6.892;2022-12-07T17:16:02;4.30;99.90
52669;DHT22;59898;52.786;6.892;2022-12-07T17:19:24;4.20;99.90
52669;DHT22;59898;52.786;6.892;2022-12-07T17:22:46;4.40;99.90
52669;DHT22;59898;52.786;6.892;2022-12-07T17:26:09;4.70;99.90
52669;DHT22;59898;52.786;6.892;2022-12-07T17:29:30;4.10;99.90
52669;DHT22;59898;52.786;6.892;2022-12-07T17:32:51;4.10;99.90
52669;DHT22;59898;52.786;6.892;2022-12-07T17:36:17;4.40;99.90
52669;DHT22;59898;52.786;6.892;2022-12-07T17:39:37;4.10;99.90
52669;DHT22;59898;52.786;6.892;2022-12-07T17:42:58;4.00;99.90
52669;DHT22;59898;52.786;6.892;2022-12-07T17:46:19;4.00;99.90
52669;DHT22;59898;52.786;6.892;2022-12-07T17:49:39;4.30;99.90
52669;DHT22;59898;52.786;6.892;2022-12-07T17:53:00;4.10;99.90
52669;DHT22;59898;52.786;6.892;2022-12-07T17:56:29;4.00;99.90
52669;DHT22;59898;52.786;6.892;2022-12-07T17:59:50;4.00;99.90
52669;DHT22;59898;52.786;6.892;2022-12-07T18:03:11;4.00;99.90
52669;DHT22;59898;52.786;6.892;2022-12-07T18:06:32;4.00;99.90
52669;DHT22;59898;52.786;6.892;2022-12-07T18:09:53;4.00;99.90
52669;DHT22;59898;52.786;6.892;2022-12-07T18:13:14;3.90;99.90
52669;DHT22;59898;52.786;6.892;2022-12-07T18:16:53;3.90;99.90
52669;DHT22;59898;52.786;6.892;2022-12-07T18:20:14;4.20;99.90
52669;DHT22;59898;52.786;6.892;2022-12-07T18:23:35;3.80;99.90
52669;DHT22;59898;52.786;6.892;2022-12-07T18:26:56;3.90;99.90
52669;DHT22;59898;52.786;6.892;2022-12-07T18:30:17;3.80;99.90
52669;DHT22;59898;52.786;6.892;2022-12-07T18:33:38;3.80;99.90
52669;DHT22;59898;52.786;6.892;2022-12-07T18:36:58;3.80;99.90
52669;DHT22;59898;52.786;6.892;2022-12-07T18:40:19;3.80;99.90
52669;DHT22;59898;52.786;6.892;2022-12-07T18:43:40;3.80;99.90
52669;DHT22;59898;52.786;6.892;2022-12-07T18:47:01;3.70;99.90
52669;DHT22;59898;52.786;6.892;2022-12-07T18:50:22;3.80;99.90
52669;DHT22;59898;52.786;6.892;2022-12-07T18:53:43;3.80;99.90
52669;DHT22;59898;52.786;6.892;2022-12-07T18:57:04;5.00;99.90
52669;DHT22;59898;52.786;6.892;2022-12-07T19:00:27;3.70;99.90
52669;DHT22;59898;52.786;6.892;2022-12-07T19:03:48;3.80;99.90
52669;DHT22;59898;52.786;6.892;2022-12-07T19:07:09;3.80;99.90
52669;DHT22;59898;52.786;6.892;2022-12-07T19:10:30;3.80;99.90
52669;DHT22;59898;52.786;6.892;2022-12-07T19:13:50;3.90;99.90
52669;DHT22;59898;52.786;6.892;2022-12-07T19:17:12;3.80;99.90
52669;DHT22;59898;52.786;6.892;2022-12-07T19:20:33;3.80;99.90
52669;DHT22;59898;52.786;6.892;2022-12-07T19:23:54;3.90;99.90
52669;DHT22;59898;52.786;6.892;2022-12-07T19:27:15;3.90;99.90
52669;DHT22;59898;52.786;6.892;2022-12-07T19:30:36;4.30;99.90
52669;DHT22;59898;52.786;6.892;2022-12-07T19:33:57;3.80;99.90
52669;DHT22;59898;52.786;6.892;2022-12-07T19:37:18;4.00;99.90
52669;DHT22;59898;52.786;6.892;2022-12-07T19:40:38;4.30;99.90
52669;DHT22;59898;52.786;6.892;2022-12-07T19:44:22;4.00;99.90
52669;DHT22;59898;52.786;6.892;2022-12-07T19:47:42;3.90;99.90
52669;DHT22;59898;52.786;6.892;2022-12-07T19:51:04;3.90;99.90
52669;DHT22;59898;52.786;6.892;2022-12-07T19:54:27;3.90;99.90
52669;DHT22;59898;52.786;6.892;2022-12-07T19:57:48;4.20;99.90
52669;DHT22;59898;52.786;6.892;2022-12-07T20:01:09;3.70;99.90
52669;DHT22;59898;52.786;6.892;2022-12-07T20:04:30;3.70;99.90
52669;DHT22;59898;52.786;6.892;2022-12-07T20:07:54;3.70;99.90
52669;DHT22;59898;52.786;6.892;2022-12-07T20:11:17;3.60;99.90
52669;DHT22;59898;52.786;6.892;2022-12-07T20:14:57;3.60;99.90
52669;DHT22;59898;52.786;6.892;2022-12-07T20:18:18;3.60;99.90
52669;DHT22;59898;52.786;6.892;2022-12-07T20:21:40;3.50;99.90
52669;DHT22;59898;52.786;6.892;2022-12-07T20:25:01;3.50;99.90
52669;DHT22;59898;52.786;6.892;2022-12-07T20:28:22;3.50;99.90
52669;DHT22;59898;52.786;6.892;2022-12-07T20:31:45;3.50;99.90
52669;DHT22;59898;52.786;6.892;2022-12-07T20:35:06;3.50;99.90
52669;DHT22;59898;52.786;6.892;2022-12-07T20:38:27;3.50;99.90
52669;DHT22;59898;52.786;6.892;2022-12-07T20:41:48;3.50;99.90
52669;DHT22;59898;52.786;6.892;2022-12-07T20:45:28;3.40;99.90
52669;DHT22;59898;52.786;6.892;2022-12-07T20:48:48;3.40;99.90
52669;DHT22;59898;52.786;6.892;2022-12-07T20:52:09;4.30;99.90
52669;DHT22;59898;52.786;6.892;2022-12-07T20:55:30;3.40;99.90
52669;DHT22;59898;52.786;6.892;2022-12-07T20:58:50;3.40;99.90
52669;DHT22;59898;52.786;6.892;2022-12-07T21:02:12;3.40;99.90
52669;DHT22;59898;52.786;6.892;2022-12-07T21:05:33;3.40;99.90
52669;DHT22;59898;52.786;6.892;2022-12-07T21:08:56;4.10;99.90
52669;DHT22;59898;52.786;6.892;2022-12-07T21:12:18;3.60;99.90
52669;DHT22;59898;52.786;6.892;2022-12-07T21:15:38;3.50;99.90
52669;DHT22;59898;52.786;6.892;2022-12-07T21:19:00;3.30;99.90
52669;DHT22;59898;52.786;6.892;2022-12-07T21:22:24;4.40;99.90
52669;DHT22;59898;52.786;6.892;2022-12-07T21:25:44;4.10;99.90
52669;DHT22;59898;52.786;6.892;2022-12-07T21:29:06;3.40;99.90
52669;DHT22;59898;52.786;6.892;2022-12-07T21:32:27;3.40;99.90
52669;DHT22;59898;52.786;6.892;2022-12-07T21:35:47;3.40;99.90
52669;DHT22;59898;52.786;6.892;2022-12-07T21:39:08;4.00;99.90
52669;DHT22;59898;52.786;6.892;2022-12-07T21:42:29;3.30;99.90
52669;DHT22;59898;52.786;6.892;2022-12-07T21:45:53;3.30;99.90
52669;DHT22;59898;52.786;6.892;2022-12-07T21:49:14;3.30;99.90
52669;DHT22;59898;52.786;6.892;2022-12-07T21:52:35;3.30;99.90
52669;DHT22;59898;52.786;6.892;2022-12-07T21:55:55;3.20;99.90
52669;DHT22;59898;52.786;6.892;2022-12-07T21:59:16;3.20;99.90
52669;DHT22;59898;52.786;6.892;2022-12-07T22:02:37;3.20;99.90
52669;DHT22;59898;52.786;6.892;2022-12-07T22:05:59;3.20;99.90
52669;DHT22;59898;52.786;6.892;2022-12-07T22:09:20;3.20;99.90
52669;DHT22;59898;52.786;6.892;2022-12-07T22:12:44;3.20;99.90
52669;DHT22;59898;52.786;6.892;2022-12-07T22:16:05;3.20;99.90
52669;DHT22;59898;52.786;6.892;2022-12-07T22:19:27;3.20;99.90
52669;DHT22;59898;52.786;6.892;2022-12-07T22:22:48;3.20;99.90
52669;DHT22;59898;52.786;6.892;2022-12-07T22:26:11;3.20;99.90
52669;DHT22;59898;52.786;6.892;2022-12-07T22:29:32;3.10;99.90
52669;DHT22;59898;52.786;6.892;2022-12-07T22:32:53;3.20;99.90
52669;DHT22;59898;52.786;6.892;2022-12-07T22:36:14;4.30;99.90
52669;DHT22;59898;52.786;6.892;2022-12-07T22:39:35;3.20;99.90
52669;DHT22;59898;52.786;6.892;2022-12-07T22:42:57;3.20;99.90
52669;DHT22;59898;52.786;6.892;2022-12-07T22:46:18;3.20;99.90
52669;DHT22;59898;52.786;6.892;2022-12-07T22:49:38;3.20;99.90
52669;DHT22;59898;52.786;6.892;2022-12-07T22:53:00;3.30;99.90
52669;DHT22;59898;52.786;6.892;2022-12-07T22:56:21;3.20;99.90
52669;DHT22;59898;52.786;6.892;2022-12-07T22:59:42;3.20;99.90
52669;DHT22;59898;52.786;6.892;2022-12-07T23:03:03;3.60;99.90
52669;DHT22;59898;52.786;6.892;2022-12-07T23:06:29;3.20;99.90
52669;DHT22;59898;52.786;6.892;2022-12-07T23:09:50;3.20;99.90
52669;DHT22;59898;52.786;6.892;2022-12-07T23:13:14;3.50;99.90
52669;DHT22;59898;52.786;6.892;2022-12-07T23:16:55;3.30;99.90
52669;DHT22;59898;52.786;6.892;2022-12-07T23:20:15;3.80;99.90
52669;DHT22;59898;52.786;6.892;2022-12-07T23:23:36;3.10;99.90
52669;DHT22;59898;52.786;6.892;2022-12-07T23:26:57;3.00;99.90
52669;DHT22;59898;52.786;6.892;2022-12-07T23:30:18;3.00;99.90
52669;DHT22;59898;52.786;6.892;2022-12-07T23:33:39;3.00;99.90
52669;DHT22;59898;52.786;6.892;2022-12-07T23:36:59;3.40;99.90
52669;DHT22;59898;52.786;6.892;2022-12-07T23:40:20;3.20;99.90
52669;DHT22;59898;52.786;6.892;2022-12-07T23:43:41;3.60;99.90
52669;DHT22;59898;52.786;6.892;2022-12-07T23:47:02;2.90;99.90
52669;DHT22;59898;52.786;6.892;2022-12-07T23:50:23;2.90;99.90
52669;DHT22;59898;52.786;6.892;2022-12-07T23:53:47;2.90;99.90
52669;DHT22;59898;52.786;6.892;2022-12-07T23:57:08;2.70;99.90
